createdAt,value
2018-09-06T00:00:14.642Z,12.10
2018-09-06T00:02:43.032Z,11.17
2018-09-06T00:05:12.497Z,11.73
2018-09-06T00:07:40.899Z,12.00
2018-09-06T00:10:10.561Z,11.47
2018-09-06T00:12:39.087Z,11.23
2018-09-06T00:15:07.533Z,11.80
2018-09-06T00:17:35.905Z,11.17
2018-09-06T00:20:04.331Z,11.33
2018-09-06T00:22:32.745Z,10.90
2018-09-06T00:25:26.864Z,10.87
2018-09-06T00:27:55.270Z,11.40
2018-09-06T00:30:23.680Z,12.43
2018-09-06T00:32:53.017Z,12.47
2018-09-06T00:35:21.427Z,12.20
2018-09-06T00:37:49.911Z,11.60
2018-09-06T00:40:18.808Z,12.17
2018-09-06T00:42:47.182Z,10.40
2018-09-06T00:45:16.490Z,11.50
2018-09-06T00:47:44.920Z,11.20
2018-09-06T00:50:16.133Z,12.53
2018-09-06T00:52:45.071Z,11.60
2018-09-06T00:55:13.690Z,11.30
2018-09-06T00:57:42.109Z,10.47
2018-09-06T01:00:11.578Z,10.80
2018-09-06T01:02:40.041Z,11.07
2018-09-06T01:05:08.472Z,12.13
2018-09-06T01:07:36.934Z,11.93
2018-09-06T01:10:05.720Z,10.67
2018-09-06T01:12:34.189Z,12.47
2018-09-06T01:15:02.548Z,11.57
2018-09-06T01:17:31.786Z,11.60
2018-09-06T01:22:58.224Z,14.13
2018-09-06T01:25:30.837Z,11.73
2018-09-06T01:27:59.234Z,13.25
2018-09-06T01:30:27.659Z,12.20
2018-09-06T01:32:56.072Z,11.30
2018-09-06T01:35:24.527Z,12.73
2018-09-06T01:37:53.137Z,11.83
2018-09-06T01:40:21.514Z,12.30
2018-09-06T01:42:49.915Z,12.53
2018-09-06T01:45:18.847Z,11.90
2018-09-06T01:47:47.250Z,11.90
2018-09-06T01:50:17.031Z,12.07
2018-09-06T01:52:45.419Z,12.07
2018-09-06T01:55:14.844Z,11.67
2018-09-06T01:57:43.214Z,13.47
2018-09-06T02:00:11.617Z,13.83
2018-09-06T02:02:40.006Z,12.00
2018-09-06T02:05:08.386Z,13.50
2018-09-06T02:07:36.781Z,12.37
2018-09-06T02:10:05.197Z,14.03
2018-09-06T02:12:33.567Z,12.80
2018-09-06T02:15:01.927Z,13.30
2018-09-06T02:17:30.469Z,11.20
2018-09-06T02:19:59.419Z,10.47
2018-09-06T02:22:27.811Z,11.87
2018-09-06T02:24:56.242Z,12.37
2018-09-06T02:27:24.728Z,11.45
2018-09-06T02:29:53.144Z,11.50
2018-09-06T02:32:21.529Z,12.23
2018-09-06T02:34:49.943Z,12.23
2018-09-06T02:37:18.331Z,11.73
2018-09-06T02:39:46.665Z,12.33
2018-09-06T02:42:15.407Z,12.37
2018-09-06T02:44:43.802Z,12.07
2018-09-06T02:47:12.680Z,11.73
2018-09-06T02:49:46.361Z,11.77
2018-09-06T02:52:15.390Z,11.80
2018-09-06T02:54:43.796Z,12.20
2018-09-06T02:57:12.405Z,12.03
2018-09-06T02:59:40.797Z,11.50
2018-09-06T03:02:09.186Z,11.20
2018-09-06T03:04:37.564Z,11.50
2018-09-06T03:07:05.995Z,12.70
2018-09-06T03:09:34.426Z,12.43
2018-09-06T03:12:04.390Z,14.10
2018-09-06T03:14:32.793Z,13.53
2018-09-06T03:17:01.207Z,13.00
2018-09-06T03:19:29.620Z,14.10
2018-09-06T03:21:58.007Z,13.87
2018-09-06T03:24:26.419Z,14.57
2018-09-06T03:26:54.829Z,14.30
2018-09-06T03:29:23.171Z,14.47
2018-09-06T03:31:51.583Z,15.40
2018-09-06T03:34:19.946Z,13.73
2018-09-06T03:36:48.606Z,15.00
2018-09-06T03:39:17.423Z,14.00
2018-09-06T03:41:45.772Z,13.83
2018-09-06T03:44:14.661Z,13.27
2018-09-06T03:46:43.167Z,13.67
2018-09-06T03:49:11.521Z,14.53
2018-09-06T03:51:39.983Z,13.93
2018-09-06T03:54:08.399Z,14.70
2018-09-06T03:56:36.821Z,13.77
2018-09-06T03:59:05.223Z,13.43
2018-09-06T04:01:33.678Z,14.30
2018-09-06T04:04:02.040Z,13.93
2018-09-06T04:06:30.389Z,13.80
2018-09-06T04:08:58.778Z,14.77
2018-09-06T04:11:27.142Z,14.20
2018-09-06T04:13:55.499Z,15.70
2018-09-06T04:16:23.946Z,13.30
2018-09-06T04:18:52.309Z,14.30
2018-09-06T04:21:20.687Z,14.13
2018-09-06T04:23:49.170Z,14.53
2018-09-06T04:26:17.554Z,13.97
2018-09-06T04:28:45.920Z,12.90
2018-09-06T04:31:15.102Z,12.80
2018-09-06T04:33:43.529Z,13.60
2018-09-06T04:36:12.049Z,13.57
2018-09-06T04:38:40.423Z,12.37
2018-09-06T04:41:09.238Z,14.57
2018-09-06T04:43:37.726Z,14.20
2018-09-06T04:46:06.106Z,14.23
2018-09-06T04:48:34.483Z,13.57
2018-09-06T04:51:02.954Z,14.30
2018-09-06T04:53:31.317Z,13.00
2018-09-06T04:55:59.791Z,15.60
2018-09-06T04:58:28.201Z,16.07
2018-09-06T05:00:56.587Z,14.30
2018-09-06T05:03:24.927Z,14.27
2018-09-06T05:05:54.287Z,13.90
2018-09-06T05:08:22.710Z,14.23
2018-09-06T05:10:51.162Z,15.28
2018-09-06T05:13:19.565Z,13.23
2018-09-06T05:15:48.006Z,13.23
2018-09-06T05:18:16.401Z,13.53
2018-09-06T05:20:44.831Z,15.10
2018-09-06T05:23:13.216Z,15.27
2018-09-06T05:25:41.725Z,13.67
2018-09-06T05:28:10.248Z,14.50
2018-09-06T05:30:38.670Z,14.00
2018-09-06T05:33:07.064Z,12.90
2018-09-06T05:35:35.497Z,13.43
2018-09-06T05:38:04.027Z,13.37
2018-09-06T05:40:33.394Z,14.97
2018-09-06T05:43:02.032Z,14.97
2018-09-06T05:45:30.460Z,13.20
2018-09-06T05:47:59.829Z,13.83
2018-09-06T05:50:29.740Z,12.40
2018-09-06T05:52:59.011Z,14.17
2018-09-06T05:55:27.419Z,13.60
2018-09-06T05:57:55.861Z,12.90
2018-09-06T06:00:29.514Z,12.90
2018-09-06T06:02:59.800Z,13.57
2018-09-06T06:05:28.266Z,12.60
2018-09-06T06:08:08.207Z,13.83
2018-09-06T06:10:36.619Z,13.13
2018-09-06T06:13:05.037Z,13.57
2018-09-06T06:15:33.445Z,16.07
2018-09-06T06:18:01.827Z,14.07
2018-09-06T06:20:30.255Z,14.70
2018-09-06T06:22:58.620Z,15.27
2018-09-06T06:25:27.015Z,14.40
2018-09-06T06:27:55.436Z,15.60
2018-09-06T06:30:24.619Z,14.03
2018-09-06T06:32:52.991Z,13.80
2018-09-06T06:35:21.451Z,15.63
2018-09-06T06:37:49.837Z,14.33
2018-09-06T06:40:18.280Z,15.50
2018-09-06T06:42:46.681Z,15.30
2018-09-06T06:45:15.102Z,14.50
2018-09-06T06:47:43.492Z,15.40
2018-09-06T06:50:12.901Z,16.37
2018-09-06T06:52:41.266Z,15.07
2018-09-06T06:55:11.436Z,15.70
2018-09-06T06:57:39.921Z,16.17
2018-09-06T07:00:10.018Z,16.40
2018-09-06T07:02:38.427Z,16.80
2018-09-06T07:05:06.905Z,15.07
2018-09-06T07:07:35.265Z,14.20
2018-09-06T07:10:03.715Z,13.90
2018-09-06T07:12:32.371Z,13.90
2018-09-06T07:15:00.731Z,14.20
2018-09-06T07:17:29.122Z,14.27
2018-09-06T07:19:57.526Z,13.53
2018-09-06T07:22:25.984Z,13.67
2018-09-06T07:24:54.359Z,14.50
2018-09-06T07:27:22.771Z,14.00
2018-09-06T07:29:51.110Z,13.37
2018-09-06T07:32:19.510Z,14.07
2018-09-06T07:34:47.832Z,14.10
2018-09-06T07:37:16.771Z,13.30
2018-09-06T07:39:45.180Z,13.40
2018-09-06T07:42:13.611Z,13.20
2018-09-06T07:44:41.987Z,12.47
2018-09-06T07:47:10.596Z,13.62
2018-09-06T07:49:39.045Z,12.97
2018-09-06T07:52:07.839Z,15.17
2018-09-06T07:54:36.190Z,14.83
2018-09-06T07:57:04.599Z,13.50
2018-09-06T07:59:33.012Z,14.30
2018-09-06T08:02:01.419Z,15.77
2018-09-06T08:04:29.812Z,14.83
2018-09-06T08:06:58.242Z,16.73
2018-09-06T08:09:26.640Z,13.43
2018-09-06T08:11:55.150Z,13.27
2018-09-06T08:14:23.540Z,13.60
2018-09-06T08:16:52.010Z,12.57
2018-09-06T08:19:20.360Z,12.80
2018-09-06T08:21:48.778Z,14.80
2018-09-06T08:24:17.193Z,14.70
2018-09-06T08:26:45.640Z,16.17
2018-09-06T08:29:14.002Z,14.70
2018-09-06T08:31:43.192Z,15.43
2018-09-06T08:34:11.525Z,15.17
2018-09-06T08:36:39.946Z,16.53
2018-09-06T08:39:10.123Z,16.50
2018-09-06T08:41:39.310Z,17.97
2018-09-06T08:44:07.899Z,18.67
2018-09-06T08:46:36.643Z,19.83
2018-09-06T08:49:05.041Z,20.00
2018-09-06T08:51:33.554Z,22.33
2018-09-06T08:54:02.063Z,16.80
2018-09-06T08:56:30.474Z,17.73
2018-09-06T08:58:58.840Z,15.57
2018-09-06T09:01:32.466Z,16.17
2018-09-06T09:04:00.808Z,16.07
2018-09-06T09:06:29.239Z,16.35
2018-09-06T09:08:58.312Z,18.00
2018-09-06T09:11:26.738Z,16.77
2018-09-06T09:13:55.144Z,17.37
2018-09-06T09:16:23.559Z,16.13
2018-09-06T09:18:52.151Z,15.20
2018-09-06T09:21:20.574Z,17.20
2018-09-06T09:23:49.000Z,17.73
2018-09-06T09:26:17.413Z,18.23
2018-09-06T09:28:45.798Z,15.90
2018-09-06T09:31:14.271Z,16.60
2018-09-06T09:33:42.930Z,16.00
2018-09-06T09:36:11.386Z,17.67
2018-09-06T09:38:39.836Z,17.17
2018-09-06T09:41:08.847Z,16.03
2018-09-06T09:43:37.719Z,17.60
2018-09-06T09:48:33.822Z,16.67
2018-09-06T09:51:02.271Z,15.53
2018-09-06T09:53:30.649Z,16.50
2018-09-06T09:55:59.032Z,16.53
2018-09-06T09:58:27.482Z,26.37
2018-09-06T10:00:57.066Z,17.53
2018-09-06T10:03:31.329Z,24.77
2018-09-06T10:06:05.595Z,18.73
2018-09-06T10:08:40.343Z,16.30
2018-09-06T10:11:11.238Z,17.80
2018-09-06T10:13:39.675Z,17.57
2018-09-06T10:16:08.627Z,16.90
2018-09-06T10:18:37.077Z,16.40
2018-09-06T10:21:05.658Z,16.87
2018-09-06T10:23:34.113Z,15.33
2018-09-06T10:26:02.626Z,16.43
2018-09-06T10:28:31.063Z,16.62
2018-09-06T10:30:59.543Z,16.00
2018-09-06T10:33:27.959Z,17.60
2018-09-06T10:35:56.463Z,16.10
2018-09-06T10:38:24.882Z,15.83
2018-09-06T10:40:55.014Z,14.03
2018-09-06T10:43:23.485Z,13.93
2018-09-06T10:45:51.934Z,13.90
2018-09-06T10:48:20.409Z,15.57
2018-09-06T10:50:48.834Z,16.40
2018-09-06T10:53:17.285Z,15.23
2018-09-06T10:55:45.698Z,16.30
2018-09-06T10:58:14.128Z,17.37
2018-09-06T11:00:42.620Z,19.10
2018-09-06T11:03:11.068Z,15.07
2018-09-06T11:05:39.945Z,15.13
2018-09-06T11:08:09.061Z,15.33
2018-09-06T11:10:37.366Z,16.27
2018-09-06T11:13:05.953Z,18.13
2018-09-06T11:15:34.417Z,15.73
2018-09-06T11:18:02.932Z,14.27
2018-09-06T11:20:31.318Z,12.85
2018-09-06T11:22:59.759Z,14.83
2018-09-06T11:25:28.242Z,14.60
2018-09-06T11:27:56.723Z,15.20
2018-09-06T11:30:25.048Z,15.83
2018-09-06T11:32:53.553Z,14.60
2018-09-06T11:35:21.999Z,13.23
2018-09-06T11:37:50.450Z,12.43
2018-09-06T11:40:18.911Z,13.77
2018-09-06T11:42:47.407Z,14.60
2018-09-06T11:45:15.831Z,13.50
2018-09-06T11:47:44.264Z,13.50
2018-09-06T11:50:13.920Z,13.33
2018-09-06T11:52:42.314Z,10.67
2018-09-06T11:55:12.053Z,23.27
2018-09-06T11:57:40.586Z,8.90
2018-09-06T12:00:10.669Z,9.53
2018-09-06T12:02:39.087Z,9.30
2018-09-06T12:05:08.335Z,8.47
2018-09-06T12:07:36.849Z,8.60
2018-09-06T12:10:05.324Z,8.00
2018-09-06T12:12:33.698Z,8.13
2018-09-06T12:15:02.083Z,8.10
2018-09-06T12:17:30.501Z,7.37
2018-09-06T12:19:58.914Z,7.40
2018-09-06T12:22:27.527Z,8.13
2018-09-06T12:24:55.988Z,7.40
2018-09-06T12:27:24.416Z,7.90
2018-09-06T12:29:54.134Z,8.57
2018-09-06T12:32:22.634Z,8.57
2018-09-06T12:34:51.095Z,9.27
2018-09-06T12:37:19.516Z,9.00
2018-09-06T12:39:47.930Z,9.03
2018-09-06T12:42:16.559Z,10.73
2018-09-06T12:44:44.978Z,9.70
2018-09-06T12:47:13.844Z,8.87
2018-09-06T12:49:42.290Z,9.00
2018-09-06T12:52:11.215Z,9.73
2018-09-06T12:54:39.632Z,10.53
2018-09-06T12:57:08.324Z,9.60
2018-09-06T12:59:36.757Z,9.97
2018-09-06T13:02:05.976Z,10.40
2018-09-06T13:04:34.442Z,11.03
2018-09-06T13:07:02.881Z,10.10
2018-09-06T13:09:31.315Z,9.87
2018-09-06T13:11:59.707Z,7.70
2018-09-06T13:14:28.185Z,7.08
2018-09-06T13:16:56.671Z,7.90
2018-09-06T13:19:25.054Z,6.70
2018-09-06T13:21:53.459Z,5.60
2018-09-06T13:24:21.869Z,5.57
2018-09-06T13:26:52.501Z,6.33
2018-09-06T13:29:20.943Z,6.70
2018-09-06T13:31:49.378Z,6.60
2018-09-06T13:34:17.861Z,6.40
2018-09-06T13:36:46.262Z,7.20
2018-09-06T13:39:14.638Z,7.27
2018-09-06T13:41:43.017Z,6.60
2018-09-06T13:44:12.202Z,6.53
2018-09-06T13:46:40.635Z,8.67
2018-09-06T13:49:09.472Z,7.13
2018-09-06T13:51:37.993Z,6.93
2018-09-06T13:54:06.860Z,7.10
2018-09-06T13:56:35.328Z,6.40
2018-09-06T13:59:03.872Z,6.73
2018-09-06T14:01:32.348Z,6.95
2018-09-06T14:04:00.763Z,6.33
2018-09-06T14:06:29.283Z,6.23
2018-09-06T14:08:57.866Z,5.90
2018-09-06T14:11:26.292Z,6.80
2018-09-06T14:13:54.660Z,7.20
2018-09-06T14:16:23.140Z,7.00
2018-09-06T14:18:51.519Z,7.60
2018-09-06T14:21:19.893Z,7.27
2018-09-06T14:23:48.318Z,7.00
2018-09-06T14:26:16.788Z,7.27
2018-09-06T14:28:45.174Z,6.43
2018-09-06T14:31:13.637Z,7.13
2018-09-06T14:33:42.089Z,7.80
2018-09-06T14:36:10.499Z,7.20
2018-09-06T14:38:39.015Z,7.87
2018-09-06T14:41:07.818Z,7.77
2018-09-06T14:43:36.177Z,7.70
2018-09-06T14:46:04.635Z,8.37
2018-09-06T14:48:33.053Z,7.40
2018-09-06T14:51:01.533Z,7.10
2018-09-06T14:53:29.903Z,7.13
2018-09-06T14:55:58.334Z,7.43
2018-09-06T14:58:26.694Z,7.30
2018-09-06T15:00:55.130Z,7.40
2018-09-06T15:03:24.206Z,8.47
2018-09-06T15:05:52.621Z,8.13
2018-09-06T15:08:21.080Z,9.13
2018-09-06T15:10:49.601Z,10.63
2018-09-06T15:13:18.505Z,11.50
2018-09-06T15:15:46.958Z,12.00
2018-09-06T15:18:15.947Z,10.80
2018-09-06T15:20:44.419Z,12.83
2018-09-06T15:23:14.261Z,13.43
2018-09-06T15:25:43.090Z,13.40
2018-09-06T15:28:12.681Z,11.87
2018-09-06T15:30:41.181Z,12.37
2018-09-06T15:33:09.876Z,12.63
2018-09-06T15:35:38.429Z,12.95
2018-09-06T15:38:07.277Z,15.33
2018-09-06T15:40:36.668Z,13.87
2018-09-06T15:43:05.559Z,13.57
2018-09-06T15:45:34.056Z,14.20
2018-09-06T15:48:02.464Z,12.73
2018-09-06T15:50:30.923Z,14.20
2018-09-06T15:52:59.370Z,12.53
2018-09-06T15:55:27.807Z,14.27
2018-09-06T15:57:56.228Z,13.20
2018-09-06T16:00:24.627Z,13.23
2018-09-06T16:02:53.018Z,13.30
2018-09-06T16:05:21.539Z,13.83
2018-09-06T16:07:50.062Z,12.73
2018-09-06T16:10:18.475Z,14.60
2018-09-06T16:12:46.989Z,14.10
2018-09-06T16:15:15.491Z,14.80
2018-09-06T16:17:44.060Z,13.57
2018-09-06T16:20:12.518Z,13.93
2018-09-06T16:22:41.076Z,14.23
2018-09-06T16:25:09.974Z,14.10
2018-09-06T16:27:38.457Z,14.27
2018-09-06T16:30:08.063Z,13.47
2018-09-06T16:32:36.515Z,13.13
2018-09-06T16:35:05.000Z,12.97
2018-09-06T16:37:33.479Z,14.10
2018-09-06T16:40:02.235Z,13.40
2018-09-06T16:42:30.804Z,13.20
2018-09-06T16:44:59.190Z,14.10
2018-09-06T16:47:27.654Z,14.50
2018-09-06T16:49:56.007Z,12.60
2018-09-06T16:52:24.435Z,13.33
2018-09-06T16:54:52.803Z,13.00
2018-09-06T16:57:21.198Z,13.20
2018-09-06T16:59:49.661Z,12.80
2018-09-06T17:02:18.091Z,12.70
2018-09-06T17:04:46.728Z,13.33
2018-09-06T17:07:15.498Z,12.57
2018-09-06T17:09:44.124Z,12.57
2018-09-06T17:12:12.552Z,12.63
2018-09-06T17:14:41.075Z,13.57
2018-09-06T17:17:09.717Z,13.10
2018-09-06T17:19:38.074Z,13.73
2018-09-06T17:22:06.789Z,13.90
2018-09-06T17:24:35.163Z,14.10
2018-09-06T17:27:03.645Z,15.20
2018-09-06T17:29:32.070Z,13.83
2018-09-06T17:32:00.473Z,14.73
2018-09-06T17:34:28.821Z,14.27
2018-09-06T17:36:57.238Z,14.43
2018-09-06T17:39:25.827Z,14.40
2018-09-06T17:41:54.253Z,13.97
2018-09-06T17:44:22.612Z,13.70
2018-09-06T17:46:51.061Z,13.90
2018-09-06T17:49:19.422Z,13.93
2018-09-06T17:51:47.872Z,13.23
2018-09-06T17:54:16.227Z,12.10
2018-09-06T17:56:44.922Z,13.80
2018-09-06T17:59:13.354Z,11.97
2018-09-06T18:01:42.927Z,11.87
2018-09-06T18:04:11.370Z,12.13
2018-09-06T18:06:39.812Z,12.50
2018-09-06T18:09:11.835Z,12.43
2018-09-06T18:11:40.942Z,11.90
2018-09-06T18:14:09.877Z,12.20
2018-09-06T18:16:38.320Z,12.60
2018-09-06T18:19:06.738Z,12.40
2018-09-06T18:21:35.255Z,12.30
2018-09-06T18:24:03.707Z,11.95
2018-09-06T18:26:32.175Z,11.00
2018-09-06T18:29:00.647Z,12.07
2018-09-06T18:31:29.124Z,12.17
2018-09-06T18:33:57.532Z,12.77
2018-09-06T18:36:25.999Z,13.30
2018-09-06T18:38:54.428Z,12.90
2018-09-06T18:41:22.904Z,13.23
2018-09-06T18:43:51.306Z,12.93
2018-09-06T18:46:19.717Z,12.70
2018-09-06T18:48:48.106Z,12.23
2018-09-06T18:51:16.630Z,11.73
2018-09-06T18:53:45.106Z,13.30
2018-09-06T18:56:14.007Z,12.93
2018-09-06T18:58:42.442Z,14.10
2018-09-06T19:01:10.811Z,16.90
2018-09-06T19:03:39.166Z,16.93
2018-09-06T19:06:07.633Z,13.23
2018-09-06T19:08:36.125Z,14.33
2018-09-06T19:11:04.576Z,13.77
2018-09-06T19:13:32.974Z,14.40
2018-09-06T19:16:01.399Z,14.63
2018-09-06T19:18:29.807Z,14.10
2018-09-06T19:20:58.182Z,13.20
2018-09-06T19:23:26.690Z,15.87
2018-09-06T19:25:56.003Z,16.42
2018-09-06T19:28:24.471Z,13.27
2018-09-06T19:30:52.910Z,13.93
2018-09-06T19:33:21.306Z,15.10
2018-09-06T19:35:49.735Z,12.90
2018-09-06T19:38:18.114Z,15.47
2018-09-06T19:40:46.558Z,15.60
2018-09-06T19:43:15.486Z,14.90
2018-09-06T19:45:43.993Z,16.27
2018-09-06T19:48:12.542Z,16.87
2018-09-06T19:50:41.019Z,16.00
2018-09-06T19:53:09.426Z,15.87
2018-09-06T19:55:37.842Z,17.10
2018-09-06T19:58:06.326Z,16.40
2018-09-06T20:00:34.983Z,16.47
2018-09-06T20:03:03.393Z,17.37
2018-09-06T20:05:31.874Z,17.00
2018-09-06T20:08:01.754Z,17.60
2018-09-06T20:10:30.264Z,17.53
2018-09-06T20:12:58.732Z,17.60
2018-09-06T20:15:27.166Z,17.73
2018-09-06T20:17:55.603Z,20.20
2018-09-06T20:20:24.060Z,19.53
2018-09-06T20:22:52.484Z,18.10
2018-09-06T20:25:20.906Z,18.40
2018-09-06T20:27:49.322Z,19.40
2018-09-06T20:30:18.561Z,19.10
2018-09-06T20:32:46.981Z,17.90
2018-09-06T20:35:17.824Z,19.90
2018-09-06T20:37:46.367Z,18.43
2018-09-06T20:40:16.356Z,19.40
2018-09-06T20:42:44.781Z,17.57
2018-09-06T20:45:13.799Z,19.23
2018-09-06T20:47:42.351Z,19.87
2018-09-06T20:50:10.809Z,18.30
2018-09-06T20:52:39.249Z,18.17
2018-09-06T20:55:07.690Z,19.57
2018-09-06T20:57:36.041Z,21.97
2018-09-06T21:00:04.622Z,21.17
2018-09-06T21:02:38.822Z,21.60
2018-09-06T21:05:09.279Z,21.93
2018-09-06T21:07:37.676Z,22.70
2018-09-06T21:10:06.205Z,25.13
2018-09-06T21:12:34.569Z,27.20
2018-09-06T21:15:03.214Z,29.23
2018-09-06T21:17:31.666Z,29.57
2018-09-06T21:20:00.028Z,31.17
2018-09-06T21:22:29.151Z,29.43
2018-09-06T21:24:57.542Z,29.37
2018-09-06T21:27:25.918Z,30.30
2018-09-06T21:29:54.336Z,35.50
2018-09-06T21:32:22.770Z,33.00
2018-09-06T21:34:51.344Z,31.60
2018-09-06T21:37:19.740Z,34.63
2018-09-06T21:39:48.172Z,31.70
2018-09-06T21:42:16.544Z,32.47
2018-09-06T21:44:44.917Z,27.83
2018-09-06T21:47:13.847Z,31.23
2018-09-06T21:49:42.237Z,33.10
2018-09-06T21:52:10.900Z,33.87
2018-09-06T21:54:39.306Z,31.70
2018-09-06T21:57:08.452Z,34.20
2018-09-06T21:59:36.846Z,31.87
2018-09-06T22:02:05.279Z,33.37
2018-09-06T22:04:33.674Z,33.90
2018-09-06T22:07:02.271Z,36.03
2018-09-06T22:09:30.635Z,34.20
2018-09-06T22:11:59.133Z,34.80
2018-09-06T22:14:27.523Z,33.20
2018-09-06T22:16:55.885Z,34.67
2018-09-06T22:19:24.266Z,33.90
2018-09-06T22:21:52.725Z,34.90
2018-09-06T22:24:21.123Z,35.30
2018-09-06T22:26:49.499Z,38.87
2018-09-06T22:29:17.953Z,33.73
2018-09-06T22:31:47.397Z,38.60
2018-09-06T22:34:16.279Z,36.43
2018-09-06T22:36:44.638Z,35.60
2018-09-06T22:39:13.513Z,36.77
2018-09-06T22:41:41.882Z,37.17
2018-09-06T22:44:10.240Z,39.63
2018-09-06T22:46:38.597Z,37.30
2018-09-06T22:49:06.978Z,39.37
2018-09-06T22:51:35.357Z,41.37
2018-09-06T22:54:03.772Z,40.50
2018-09-06T22:56:32.141Z,42.27
2018-09-06T22:59:00.492Z,43.30
2018-09-06T23:01:28.971Z,39.40
2018-09-06T23:03:57.363Z,41.50
2018-09-06T23:06:26.499Z,42.20
2018-09-06T23:08:54.875Z,39.60
2018-09-06T23:11:23.314Z,41.50
2018-09-06T23:13:51.701Z,39.80
2018-09-06T23:16:20.111Z,40.83
2018-09-06T23:18:48.530Z,39.03
2018-09-06T23:21:16.985Z,36.67
2018-09-06T23:23:45.332Z,40.80
2018-09-06T23:26:14.416Z,38.60
2018-09-06T23:28:42.766Z,38.33
2018-09-06T23:31:11.176Z,36.37
2018-09-06T23:33:39.549Z,39.53
2018-09-06T23:36:07.929Z,39.30
2018-09-06T23:38:36.293Z,36.60
2018-09-06T23:41:05.645Z,40.30
2018-09-06T23:43:34.046Z,39.00
2018-09-06T23:46:02.495Z,37.13
2018-09-06T23:48:30.837Z,39.70
2018-09-06T23:50:59.425Z,41.17
2018-09-06T23:53:28.452Z,36.53
2018-09-06T23:55:56.901Z,37.75
2018-09-06T23:58:25.477Z,36.63
